Time;durP1;ratioP1;P1;durP2;ratioP2;P2;SDS_P1;SDS_P2;PMS_P1;PMS_P2;Temp;Humidity;BMP_temperature;BMP_pressure;BME280_temperature;BME280_humidity;BME280_pressure;Samples;Min_cycle;Max_cycle;Signal;HPM_P1;HPM_P2
2021/04/07 06:00:30;;;;;;;14.68;5.57;;;;;;;;;;5080426;28;20376;-63
2021/04/07 06:02:56;;;;;;;7.10;4.40;;;;;;;;;;5068297;28;20107;-63
2021/04/07 06:05:22;;;;;;;9.85;4.90;;;;;;;;;;5040158;28;20025;-64
2021/04/07 06:07:47;;;;;;;9.45;4.88;;;;;;;;;;5062260;28;20035;-64
2021/04/07 06:10:13;;;;;;;9.07;5.03;;;;;;;;;;5066838;28;20019;-63
2021/04/07 06:12:38;;;;;;;10.55;4.95;;;;;;;;;;5067571;28;20056;-63
2021/04/07 06:15:04;;;;;;;17.08;5.70;;;;;;;;;;5066162;28;20039;-63
2021/04/07 06:17:30;;;;;;;7.28;4.45;;;;;;;;;;5068667;28;20068;-63
2021/04/07 06:19:55;;;;;;;8.00;4.75;;;;;;;;;;5065902;28;20044;-63
2021/04/07 06:22:21;;;;;;;7.95;5.00;;;;;;;;;;5067504;28;20036;-63
2021/04/07 06:24:46;;;;;;;6.93;5.18;;;;;;;;;;5067081;28;20119;-63
2021/04/07 06:27:11;;;;;;;6.50;4.90;;;;;;;;;;5067015;28;20013;-63
2021/04/07 06:29:37;;;;;;;7.05;4.50;;;;;;;;;;5067758;28;20041;-64
2021/04/07 06:32:02;;;;;;;7.43;4.85;;;;;;;;;;5067054;28;20060;-63
2021/04/07 06:34:27;;;;;;;10.93;5.07;;;;;;;;;;5069179;28;20017;-64
2021/04/07 06:36:54;;;;;;;7.55;4.30;;;;;;;;;;5065489;28;20017;-64
2021/04/07 06:39:19;;;;;;;6.70;4.80;;;;;;;;;;5066280;28;20112;-64
2021/04/07 06:41:45;;;;;;;8.85;5.18;;;;;;;;;;5066260;28;20119;-62
2021/04/07 06:44:10;;;;;;;10.40;4.43;;;;;;;;;;5067552;28;20025;-64
2021/04/07 06:46:36;;;;;;;38.70;5.95;;;;;;;;;;5067113;28;20028;-63
2021/04/07 06:49:01;;;;;;;14.57;4.82;;;;;;;;;;5066357;28;20595;-63
2021/04/07 06:51:27;;;;;;;7.05;4.95;;;;;;;;;;5066400;28;20013;-64
2021/04/07 06:56:55;;;;;;;6.45;4.40;;;;;;;;;;5050352;28;20110;-64
2021/04/07 06:59:20;;;;;;;6.47;4.55;;;;;;;;;;5053398;28;20514;-63
2021/04/07 07:01:46;;;;;;;5.88;4.32;;;;;;;;;;5062076;28;20013;-63
2021/04/07 07:04:11;;;;;;;5.85;4.20;;;;;;;;;;5062561;28;20016;-63
2021/04/07 07:06:37;;;;;;;9.43;4.78;;;;;;;;;;5065770;28;20059;-63
2021/04/07 07:09:12;;;;;;;9.38;4.30;;;;;;;;;;5066542;28;20496;-63
2021/04/07 07:11:38;;;;;;;7.95;4.30;;;;;;;;;;5054676;28;20437;-69
2021/04/07 07:14:03;;;;;;;8.48;4.70;;;;;;;;;;5048688;28;20017;-61
2021/04/07 07:16:29;;;;;;;7.20;4.35;;;;;;;;;;5048408;28;20355;-63
2021/04/07 07:18:54;;;;;;;6.60;4.53;;;;;;;;;;5054983;28;20036;-64
2021/04/07 07:21:21;;;;;;;6.20;4.55;;;;;;;;;;5055026;28;20092;-64
2021/04/07 07:23:47;;;;;;;5.35;4.22;;;;;;;;;;5039325;28;20109;-63
2021/04/07 07:26:13;;;;;;;7.57;4.55;;;;;;;;;;5033869;28;20104;-64
2021/04/07 07:28:44;;;;;;;7.15;4.65;;;;;;;;;;5033335;28;20025;-64
2021/04/07 07:31:19;;;;;;;7.28;4.70;;;;;;;;;;5034554;28;20016;-64
2021/04/07 07:33:44;;;;;;;10.63;5.13;;;;;;;;;;5034268;28;20370;-71
2021/04/07 07:36:10;;;;;;;8.43;4.97;;;;;;;;;;5033433;28;20025;-71
2021/04/07 07:38:43;;;;;;;7.70;4.93;;;;;;;;;;5033103;28;20470;-69
2021/04/07 07:41:08;;;;;;;7.30;4.35;;;;;;;;;;5034039;28;20017;-71
2021/04/07 07:43:34;;;;;;;9.68;5.68;;;;;;;;;;5033810;28;20028;-71
2021/04/07 07:46:10;;;;;;;7.75;5.20;;;;;;;;;;5049003;28;20094;-73
2021/04/07 07:48:36;;;;;;;6.97;5.22;;;;;;;;;;5054721;28;20102;-64
2021/04/07 07:51:10;;;;;;;13.43;5.03;;;;;;;;;;5034542;28;20048;-66
2021/04/07 07:53:36;;;;;;;6.53;4.40;;;;;;;;;;5035194;28;20026;-65
2021/04/07 07:56:01;;;;;;;8.50;5.40;;;;;;;;;;5053299;28;20024;-65
2021/04/07 07:58:27;;;;;;;7.45;4.95;;;;;;;;;;5035324;28;20049;-65
2021/04/07 08:01:02;;;;;;;7.45;5.38;;;;;;;;;;5040872;28;20020;-65
2021/04/07 08:03:29;;;;;;;7.75;4.95;;;;;;;;;;5040933;28;20100;-64
2021/04/07 08:05:57;;;;;;;8.60;4.95;;;;;;;;;;5033224;28;20466;-65
2021/04/07 08:08:23;;;;;;;7.20;4.75;;;;;;;;;;5049934;28;20028;-64
2021/04/07 08:10:48;;;;;;;8.45;4.65;;;;;;;;;;5044828;28;20546;-64
2021/04/07 08:13:14;;;;;;;6.20;4.88;;;;;;;;;;5048569;28;20013;-67
2021/04/07 08:15:39;;;;;;;8.90;4.38;;;;;;;;;;5046158;28;20372;-68
2021/04/07 08:18:05;;;;;;;5.97;4.03;;;;;;;;;;5064902;28;20021;-67
2021/04/07 08:20:31;;;;;;;8.85;5.30;;;;;;;;;;5025037;28;20029;-67
2021/04/07 08:22:57;;;;;;;7.63;5.47;;;;;;;;;;5043644;28;20462;-68
2021/04/07 08:25:23;;;;;;;5.50;3.97;;;;;;;;;;5048292;28;20026;-68
2021/04/07 08:27:51;;;;;;;6.00;3.80;;;;;;;;;;5032342;28;20036;-67
2021/04/07 08:30:16;;;;;;;8.70;4.75;;;;;;;;;;5032297;28;20408;-69
2021/04/07 08:32:43;;;;;;;6.35;4.03;;;;;;;;;;5032254;28;20083;-68
2021/04/07 08:35:10;;;;;;;4.28;3.45;;;;;;;;;;5039289;28;20017;-69
2021/04/07 08:37:36;;;;;;;5.10;3.90;;;;;;;;;;5051991;28;20537;-65
2021/04/07 08:40:11;;;;;;;9.20;4.07;;;;;;;;;;5053103;28;20153;-64
2021/04/07 08:42:37;;;;;;;6.90;3.90;;;;;;;;;;5051700;28;20020;-65
2021/04/07 08:45:05;;;;;;;6.07;3.75;;;;;;;;;;5048251;28;20028;-64
2021/04/07 08:47:34;;;;;;;7.20;4.50;;;;;;;;;;5052659;28;20020;-65
2021/04/07 08:50:04;;;;;;;6.10;3.88;;;;;;;;;;5037560;28;20091;-65
2021/04/07 08:52:29;;;;;;;21.73;4.43;;;;;;;;;;5053722;28;20028;-65
2021/04/07 08:54:58;;;;;;;5.15;3.83;;;;;;;;;;5054928;28;20013;-64
2021/04/07 08:57:24;;;;;;;6.60;4.23;;;;;;;;;;5073084;28;20397;-64
2021/04/07 08:59:53;;;;;;;6.30;3.50;;;;;;;;;;5068653;28;20524;-64
2021/04/07 09:02:19;;;;;;;4.85;3.35;;;;;;;;;;5039051;28;20025;-65
2021/04/07 09:04:47;;;;;;;20.20;5.97;;;;;;;;;;5031275;28;20124;-65
2021/04/07 09:07:12;;;;;;;6.90;4.22;;;;;;;;;;5063961;28;20020;-65
2021/04/07 09:09:37;;;;;;;7.40;4.03;;;;;;;;;;5063539;28;20020;-65
2021/04/07 09:12:03;;;;;;;5.30;3.70;;;;;;;;;;5047485;28;20067;-63
2021/04/07 09:14:30;;;;;;;10.82;4.68;;;;;;;;;;5038524;28;20033;-65
2021/04/07 09:17:05;;;;;;;19.75;4.82;;;;;;;;;;5038172;28;20024;-64
2021/04/07 09:19:31;;;;;;;5.82;3.80;;;;;;;;;;5042481;28;20032;-64
2021/04/07 09:21:59;;;;;;;9.55;4.35;;;;;;;;;;5050099;28;20096;-65
2021/04/07 11:02:52;;;;;;;4.35;2.20;;;;;;;;;;5086535;27;20392;-60
2021/04/07 11:05:18;;;;;;;5.47;2.00;;;;;;;;;;5070708;28;20106;-61
2021/04/07 11:07:44;;;;;;;3.85;2.13;;;;;;;;;;5038187;28;20376;-62
2021/04/07 11:10:11;;;;;;;2.97;1.90;;;;;;;;;;5063972;28;20017;-61
2021/04/07 11:12:36;;;;;;;4.32;2.60;;;;;;;;;;5079306;28;20070;-61
2021/04/07 11:15:04;;;;;;;3.22;2.40;;;;;;;;;;5056446;28;20477;-61
2021/04/07 11:17:30;;;;;;;4.85;2.35;;;;;;;;;;5084915;28;20016;-62
2021/04/07 11:19:55;;;;;;;7.10;2.95;;;;;;;;;;5073675;28;20013;-62
2021/04/07 11:22:20;;;;;;;12.07;2.78;;;;;;;;;;5080221;28;20477;-62
2021/04/07 11:24:46;;;;;;;5.22;2.47;;;;;;;;;;5079951;28;20016;-61
2021/04/07 11:27:11;;;;;;;9.45;3.03;;;;;;;;;;5072535;28;20028;-62
2021/04/07 11:29:37;;;;;;;6.28;3.10;;;;;;;;;;5083283;28;20354;-62
2021/04/07 11:32:03;;;;;;;4.90;2.53;;;;;;;;;;5073939;28;20353;-63
2021/04/07 11:34:35;;;;;;;6.13;3.03;;;;;;;;;;5078481;28;20013;-61
2021/04/07 11:37:09;;;;;;;3.45;2.42;;;;;;;;;;5081527;28;20016;-63
2021/04/07 11:39:40;;;;;;;6.20;2.50;;;;;;;;;;5071256;28;20021;-61
2021/04/07 11:42:14;;;;;;;5.90;2.85;;;;;;;;;;5078005;28;20072;-62
2021/04/07 11:44:40;;;;;;;4.80;2.75;;;;;;;;;;5054751;28;20040;-63
2021/04/07 11:47:06;;;;;;;3.58;2.42;;;;;;;;;;5052963;28;20028;-63
2021/04/07 11:49:32;;;;;;;5.22;2.90;;;;;;;;;;5071595;28;20096;-63
2021/04/07 11:51:57;;;;;;;6.05;2.70;;;;;;;;;;5084690;28;20016;-61
2021/04/07 11:54:23;;;;;;;7.35;2.63;;;;;;;;;;5069392;28;20487;-62
2021/04/07 11:56:48;;;;;;;4.15;2.80;;;;;;;;;;5083425;28;20031;-62
2021/04/07 11:59:15;;;;;;;5.65;2.80;;;;;;;;;;5069609;28;20059;-62
2021/04/07 12:01:42;;;;;;;7.10;2.65;;;;;;;;;;5087698;28;20052;-62
2021/04/07 12:04:07;;;;;;;4.93;2.50;;;;;;;;;;5077192;28;20033;-63
2021/04/07 12:06:33;;;;;;;6.00;2.80;;;;;;;;;;5047229;28;20420;-61
2021/04/07 12:08:59;;;;;;;3.38;2.38;;;;;;;;;;5084590;28;20016;-62
2021/04/07 12:11:24;;;;;;;9.80;3.60;;;;;;;;;;5055660;28;20120;-61
2021/04/07 12:13:50;;;;;;;6.18;2.42;;;;;;;;;;5047941;28;20078;-62
2021/04/07 12:16:31;;;;;;;10.02;3.08;;;;;;;;;;5055079;28;20066;-61
2021/04/07 12:19:00;;;;;;;3.40;2.53;;;;;;;;;;5054916;28;20367;-61
2021/04/07 12:21:25;;;;;;;3.97;2.42;;;;;;;;;;5063403;28;20081;-61
2021/04/07 12:23:51;;;;;;;5.07;3.55;;;;;;;;;;5067199;28;20021;-62
2021/04/07 12:26:16;;;;;;;3.35;2.35;;;;;;;;;;5047512;28;20025;-61
2021/04/07 12:28:43;;;;;;;5.47;2.47;;;;;;;;;;5066822;28;20059;-62
2021/04/07 12:31:10;;;;;;;5.85;2.60;;;;;;;;;;5039337;28;20493;-61
2021/04/07 12:33:35;;;;;;;7.65;3.58;;;;;;;;;;5063871;28;20032;-62
2021/04/07 12:36:01;;;;;;;2.97;2.03;;;;;;;;;;5049647;28;20021;-61
2021/04/07 12:38:30;;;;;;;4.80;2.20;;;;;;;;;;5065462;28;20013;-63
2021/04/07 12:40:57;;;;;;;5.60;2.60;;;;;;;;;;5059694;28;20394;-65
2021/04/07 12:43:22;;;;;;;6.25;3.17;;;;;;;;;;5053323;28;20055;-64
2021/04/07 12:45:48;;;;;;;5.78;2.70;;;;;;;;;;5048883;28;20091;-63
2021/04/07 12:48:13;;;;;;;5.47;2.13;;;;;;;;;;5057098;28;20035;-64
2021/04/07 12:50:39;;;;;;;3.65;2.33;;;;;;;;;;5060184;28;20016;-65
2021/04/07 12:53:09;;;;;;;3.30;2.00;;;;;;;;;;5055380;28;20013;-65
2021/04/07 12:55:34;;;;;;;4.03;2.00;;;;;;;;;;5048841;28;20019;-65
2021/04/07 12:58:01;;;;;;;4.15;1.80;;;;;;;;;;5044010;28;20017;-67
2021/04/07 13:00:28;;;;;;;3.60;1.80;;;;;;;;;;5058796;28;20107;-67
2021/04/07 13:02:54;;;;;;;3.33;2.03;;;;;;;;;;5044909;28;20025;-63
2021/04/07 13:05:20;;;;;;;4.75;1.98;;;;;;;;;;5040641;28;20560;-63
2021/04/07 13:07:46;;;;;;;3.88;2.28;;;;;;;;;;5037322;28;20406;-64
2021/04/07 13:10:12;;;;;;;9.95;2.38;;;;;;;;;;5054869;28;20553;-65
2021/04/07 13:12:37;;;;;;;2.30;1.65;;;;;;;;;;5057032;28;20500;-64
2021/04/07 13:15:03;;;;;;;2.92;1.58;;;;;;;;;;5056882;28;20014;-64
2021/04/07 13:17:28;;;;;;;2.78;1.50;;;;;;;;;;5065787;28;20528;-61
2021/04/07 13:19:56;;;;;;;3.67;1.67;;;;;;;;;;5036946;28;20449;-68
2021/04/07 13:22:21;;;;;;;3.08;1.70;;;;;;;;;;5045131;28;20086;-67
2021/04/07 13:24:47;;;;;;;3.63;1.60;;;;;;;;;;5039803;28;20414;-67
2021/04/07 13:27:13;;;;;;;3.40;1.83;;;;;;;;;;5049699;28;20022;-68
2021/04/07 13:34:24;;;;;;;3.25;1.80;;;;;;;;;;5086414;27;20385;-70
2021/04/07 13:37:00;;;;;;;2.05;1.40;;;;;;;;;;5076901;28;20043;-68
2021/04/07 13:39:39;;;;;;;1.92;1.60;;;;;;;;;;5096595;28;20032;-68
2021/04/07 13:44:42;;;;;;;5.35;3.10;;;;;;;;;;5070930;28;20462;-67
2021/04/07 13:47:08;;;;;;;5.47;2.00;;;;;;;;;;5083630;28;20020;-67
2021/04/07 13:49:34;;;;;;;3.95;2.33;;;;;;;;;;5050848;28;20140;-67
2021/04/07 13:51:59;;;;;;;4.50;2.30;;;;;;;;;;5075330;28;20066;-67
2021/04/07 13:54:24;;;;;;;7.28;2.45;;;;;;;;;;5080815;28;20407;-68
2021/04/07 13:57:05;;;;;;;6.95;2.67;;;;;;;;;;5076904;28;20117;-67
2021/04/07 13:59:31;;;;;;;6.93;2.40;;;;;;;;;;5068126;28;20025;-68
2021/04/07 14:01:57;;;;;;;2.80;2.40;;;;;;;;;;5068001;28;20019;-68
2021/04/07 14:04:22;;;;;;;4.93;2.80;;;;;;;;;;5068015;28;20024;-68
2021/04/07 14:06:48;;;;;;;4.63;2.58;;;;;;;;;;5049036;28;20036;-68
2021/04/07 14:09:14;;;;;;;7.15;2.60;;;;;;;;;;5067039;28;20089;-68
2021/04/07 14:11:40;;;;;;;7.38;2.47;;;;;;;;;;5066470;28;20017;-66
2021/04/07 14:14:05;;;;;;;7.35;1.98;;;;;;;;;;5075937;28;20040;-69
2021/04/07 14:16:30;;;;;;;4.85;2.47;;;;;;;;;;5074734;28;20017;-67
2021/04/07 14:18:56;;;;;;;4.05;2.47;;;;;;;;;;5069244;28;20021;-67
2021/04/07 14:21:21;;;;;;;6.00;2.00;;;;;;;;;;5078137;28;20082;-70
2021/04/07 14:23:46;;;;;;;5.70;2.00;;;;;;;;;;5079890;28;20044;-68
2021/04/07 14:26:12;;;;;;;4.05;2.97;;;;;;;;;;5052911;28;20025;-69
2021/04/07 14:28:38;;;;;;;10.80;1.98;;;;;;;;;;5077609;28;20071;-69
